sensor_id;sensor_type;location;lat;lon;timestamp;temperature;humidity
71672;DHT22;67659;45.554;11.812;2023-09-08T00:00:57;22.50;91.10
71672;DHT22;67659;45.554;11.812;2023-09-08T00:03:23;22.40;90.40
71672;DHT22;67659;45.554;11.812;2023-09-08T00:05:49;22.30;92.30
71672;DHT22;67659;45.554;11.812;2023-09-08T00:08:14;22.20;92.00
71672;DHT22;67659;45.554;11.812;2023-09-08T00:10:40;22.30;93.20
71672;DHT22;67659;45.554;11.812;2023-09-08T00:13:06;22.20;93.10
71672;DHT22;67659;45.554;11.812;2023-09-08T00:15:36;22.20;93.50
71672;DHT22;67659;45.554;11.812;2023-09-08T00:18:02;22.20;91.50
71672;DHT22;67659;45.554;11.812;2023-09-08T00:20:28;22.10;91.30
71672;DHT22;67659;45.554;11.812;2023-09-08T00:22:54;22.00;92.70
71672;DHT22;67659;45.554;11.812;2023-09-08T00:25:19;22.00;95.40
71672;DHT22;67659;45.554;11.812;2023-09-08T00:27:45;22.00;95.20
71672;DHT22;67659;45.554;11.812;2023-09-08T00:30:11;22.00;94.30
71672;DHT22;67659;45.554;11.812;2023-09-08T00:32:37;22.10;94.90
71672;DHT22;67659;45.554;11.812;2023-09-08T00:37:50;22.20;92.30
71672;DHT22;67659;45.554;11.812;2023-09-08T00:40:16;22.20;93.30
71672;DHT22;67659;45.554;11.812;2023-09-08T00:42:42;22.20;91.00
71672;DHT22;67659;45.554;11.812;2023-09-08T00:45:08;22.00;91.30
71672;DHT22;67659;45.554;11.812;2023-09-08T00:47:34;21.80;91.30
71672;DHT22;67659;45.554;11.812;2023-09-08T00:50:03;21.70;91.50
71672;DHT22;67659;45.554;11.812;2023-09-08T00:52:29;21.70;92.60
71672;DHT22;67659;45.554;11.812;2023-09-08T00:54:59;21.60;92.90
71672;DHT22;67659;45.554;11.812;2023-09-08T00:57:25;21.70;93.50
71672;DHT22;67659;45.554;11.812;2023-09-08T00:59:51;21.80;93.60
71672;DHT22;67659;45.554;11.812;2023-09-08T01:02:18;21.70;93.00
71672;DHT22;67659;45.554;11.812;2023-09-08T01:04:44;21.60;93.30
71672;DHT22;67659;45.554;11.812;2023-09-08T01:07:11;21.60;94.50
71672;DHT22;67659;45.554;11.812;2023-09-08T01:09:37;21.70;93.70
71672;DHT22;67659;45.554;11.812;2023-09-08T01:12:07;21.80;94.30
71672;DHT22;67659;45.554;11.812;2023-09-08T01:14:33;21.70;93.50
71672;DHT22;67659;45.554;11.812;2023-09-08T01:16:59;21.70;92.40
71672;DHT22;67659;45.554;11.812;2023-09-08T01:19:25;21.70;93.10
71672;DHT22;67659;45.554;11.812;2023-09-08T01:25:18;21.50;94.20
71672;DHT22;67659;45.554;11.812;2023-09-08T01:27:54;21.40;95.70
71672;DHT22;67659;45.554;11.812;2023-09-08T01:30:21;21.40;99.90
71672;DHT22;67659;45.554;11.812;2023-09-08T01:32:49;21.40;95.80
71672;DHT22;67659;45.554;11.812;2023-09-08T01:35:16;21.40;93.80
71672;DHT22;67659;45.554;11.812;2023-09-08T01:37:46;21.30;93.40
71672;DHT22;67659;45.554;11.812;2023-09-08T01:40:12;21.30;94.00
71672;DHT22;67659;45.554;11.812;2023-09-08T01:42:39;21.20;93.50
71672;DHT22;67659;45.554;11.812;2023-09-08T01:45:05;21.30;93.60
71672;DHT22;67659;45.554;11.812;2023-09-08T01:47:31;21.10;93.80
71672;DHT22;67659;45.554;11.812;2023-09-08T01:49:57;21.00;95.30
71672;DHT22;67659;45.554;11.812;2023-09-08T01:52:24;21.00;94.60
71672;DHT22;67659;45.554;11.812;2023-09-08T01:54:50;20.90;96.10
71672;DHT22;67659;45.554;11.812;2023-09-08T01:57:16;20.80;96.90
71672;DHT22;67659;45.554;11.812;2023-09-08T01:59:42;20.90;97.20
71672;DHT22;67659;45.554;11.812;2023-09-08T02:02:08;20.90;97.30
71672;DHT22;67659;45.554;11.812;2023-09-08T02:04:34;20.90;96.00
71672;DHT22;67659;45.554;11.812;2023-09-08T02:07:00;20.90;97.40
71672;DHT22;67659;45.554;11.812;2023-09-08T02:09:32;20.90;96.60
71672;DHT22;67659;45.554;11.812;2023-09-08T02:11:58;20.80;99.50
71672;DHT22;67659;45.554;11.812;2023-09-08T02:14:24;20.70;99.90
71672;DHT22;67659;45.554;11.812;2023-09-08T02:16:50;20.90;98.70
71672;DHT22;67659;45.554;11.812;2023-09-08T02:19:16;20.80;99.80
71672;DHT22;67659;45.554;11.812;2023-09-08T02:21:42;20.90;96.80
71672;DHT22;67659;45.554;11.812;2023-09-08T02:24:08;20.90;96.40
71672;DHT22;67659;45.554;11.812;2023-09-08T02:26:34;20.90;98.30
71672;DHT22;67659;45.554;11.812;2023-09-08T02:29:00;21.00;95.40
71672;DHT22;67659;45.554;11.812;2023-09-08T02:31:28;20.90;95.50
71672;DHT22;67659;45.554;11.812;2023-09-08T02:33:54;20.90;95.30
71672;DHT22;67659;45.554;11.812;2023-09-08T02:36:19;20.80;96.50
71672;DHT22;67659;45.554;11.812;2023-09-08T02:38:53;20.80;96.90
71672;DHT22;67659;45.554;11.812;2023-09-08T02:41:19;20.80;96.80
71672;DHT22;67659;45.554;11.812;2023-09-08T02:43:45;20.80;97.70
71672;DHT22;67659;45.554;11.812;2023-09-08T02:46:11;20.80;99.90
71672;DHT22;67659;45.554;11.812;2023-09-08T02:48:37;20.90;99.90
71672;DHT22;67659;45.554;11.812;2023-09-08T02:51:03;20.90;96.90
71672;DHT22;67659;45.554;11.812;2023-09-08T02:53:29;20.80;96.20
71672;DHT22;67659;45.554;11.812;2023-09-08T02:55:55;20.60;97.80
71672;DHT22;67659;45.554;11.812;2023-09-08T02:58:21;20.30;98.60
71672;DHT22;67659;45.554;11.812;2023-09-08T03:00:48;20.40;99.90
71672;DHT22;67659;45.554;11.812;2023-09-08T03:03:14;20.30;99.90
71672;DHT22;67659;45.554;11.812;2023-09-08T03:05:39;20.50;99.90
71672;DHT22;67659;45.554;11.812;2023-09-08T03:08:05;20.50;99.90
71672;DHT22;67659;45.554;11.812;2023-09-08T03:10:32;20.50;99.90
71672;DHT22;67659;45.554;11.812;2023-09-08T03:13:02;20.50;99.40
71672;DHT22;67659;45.554;11.812;2023-09-08T03:15:28;20.50;98.30
71672;DHT22;67659;45.554;11.812;2023-09-08T03:17:54;20.50;97.40
71672;DHT22;67659;45.554;11.812;2023-09-08T03:20:20;20.50;98.50
71672;DHT22;67659;45.554;11.812;2023-09-08T03:22:46;20.50;98.80
71672;DHT22;67659;45.554;11.812;2023-09-08T03:25:15;20.50;97.10
71672;DHT22;67659;45.554;11.812;2023-09-08T03:27:41;20.40;98.60
71672;DHT22;67659;45.554;11.812;2023-09-08T03:30:07;20.40;99.80
71672;DHT22;67659;45.554;11.812;2023-09-08T03:32:34;20.30;98.90
71672;DHT22;67659;45.554;11.812;2023-09-08T03:34:59;20.20;99.90
71672;DHT22;67659;45.554;11.812;2023-09-08T03:37:25;20.20;99.20
71672;DHT22;67659;45.554;11.812;2023-09-08T03:39:54;20.10;99.00
71672;DHT22;67659;45.554;11.812;2023-09-08T03:42:20;20.20;99.90
71672;DHT22;67659;45.554;11.812;2023-09-08T03:44:46;20.20;99.90
71672;DHT22;67659;45.554;11.812;2023-09-08T03:47:12;20.30;99.30
71672;DHT22;67659;45.554;11.812;2023-09-08T03:49:37;20.10;97.30
71672;DHT22;67659;45.554;11.812;2023-09-08T03:52:03;20.10;99.80
71672;DHT22;67659;45.554;11.812;2023-09-08T03:54:30;20.10;99.90
71672;DHT22;67659;45.554;11.812;2023-09-08T03:56:55;20.00;99.90
71672;DHT22;67659;45.554;11.812;2023-09-08T03:59:21;20.10;99.90
71672;DHT22;67659;45.554;11.812;2023-09-08T04:01:47;20.20;99.90
71672;DHT22;67659;45.554;11.812;2023-09-08T04:04:13;20.20;99.90
71672;DHT22;67659;45.554;11.812;2023-09-08T04:06:39;20.30;99.90
71672;DHT22;67659;45.554;11.812;2023-09-08T04:09:05;20.40;99.90
71672;DHT22;67659;45.554;11.812;2023-09-08T04:11:30;20.40;98.60
71672;DHT22;67659;45.554;11.812;2023-09-08T04:13:56;20.30;98.90
71672;DHT22;67659;45.554;11.812;2023-09-08T04:16:22;20.20;98.80
71672;DHT22;67659;45.554;11.812;2023-09-08T04:18:48;20.00;99.20
71672;DHT22;67659;45.554;11.812;2023-09-08T04:21:14;19.90;99.90
71672;DHT22;67659;45.554;11.812;2023-09-08T04:23:40;19.70;99.90
71672;DHT22;67659;45.554;11.812;2023-09-08T04:26:06;19.80;99.90
71672;DHT22;67659;45.554;11.812;2023-09-08T04:28:32;19.70;99.90
71672;DHT22;67659;45.554;11.812;2023-09-08T04:30:57;19.80;99.90
71672;DHT22;67659;45.554;11.812;2023-09-08T04:33:24;19.90;99.90
71672;DHT22;67659;45.554;11.812;2023-09-08T04:35:50;20.00;99.90
71672;DHT22;67659;45.554;11.812;2023-09-08T04:38:16;20.00;99.90
71672;DHT22;67659;45.554;11.812;2023-09-08T04:40:42;20.00;99.90
71672;DHT22;67659;45.554;11.812;2023-09-08T04:43:08;20.00;99.90
71672;DHT22;67659;45.554;11.812;2023-09-08T04:45:33;19.90;99.90
71672;DHT22;67659;45.554;11.812;2023-09-08T04:47:59;19.90;99.90
71672;DHT22;67659;45.554;11.812;2023-09-08T04:50:25;19.80;99.90
71672;DHT22;67659;45.554;11.812;2023-09-08T04:52:51;19.80;99.90
71672;DHT22;67659;45.554;11.812;2023-09-08T04:55:17;19.80;99.90
71672;DHT22;67659;45.554;11.812;2023-09-08T04:57:45;19.80;99.90
71672;DHT22;67659;45.554;11.812;2023-09-08T05:00:11;19.80;99.90
71672;DHT22;67659;45.554;11.812;2023-09-08T05:02:37;19.70;99.90
71672;DHT22;67659;45.554;11.812;2023-09-08T05:05:04;19.70;99.90
71672;DHT22;67659;45.554;11.812;2023-09-08T05:07:30;19.60;99.90
71672;DHT22;67659;45.554;11.812;2023-09-08T05:09:55;19.70;99.90
71672;DHT22;67659;45.554;11.812;2023-09-08T05:12:21;19.90;99.90
71672;DHT22;67659;45.554;11.812;2023-09-08T05:14:47;20.10;99.90
71672;DHT22;67659;45.554;11.812;2023-09-08T05:17:13;20.10;99.90
71672;DHT22;67659;45.554;11.812;2023-09-08T05:19:39;20.30;99.90
71672;DHT22;67659;45.554;11.812;2023-09-08T05:22:06;20.40;99.90
71672;DHT22;67659;45.554;11.812;2023-09-08T05:24:33;20.50;99.90
71672;DHT22;67659;45.554;11.812;2023-09-08T05:26:59;20.60;99.90
71672;DHT22;67659;45.554;11.812;2023-09-08T05:29:25;21.00;99.90
71672;DHT22;67659;45.554;11.812;2023-09-08T05:31:50;21.10;98.70
71672;DHT22;67659;45.554;11.812;2023-09-08T05:34:17;21.20;96.70
71672;DHT22;67659;45.554;11.812;2023-09-08T05:36:43;21.40;96.20
71672;DHT22;67659;45.554;11.812;2023-09-08T05:39:09;21.60;95.40
71672;DHT22;67659;45.554;11.812;2023-09-08T05:41:36;21.70;94.80
71672;DHT22;67659;45.554;11.812;2023-09-08T05:44:02;21.80;96.90
71672;DHT22;67659;45.554;11.812;2023-09-08T05:46:28;22.00;96.30
71672;DHT22;67659;45.554;11.812;2023-09-08T05:48:54;22.20;94.60
71672;DHT22;67659;45.554;11.812;2023-09-08T05:51:20;22.30;94.10
71672;DHT22;67659;45.554;11.812;2023-09-08T05:53:46;22.40;94.80
71672;DHT22;67659;45.554;11.812;2023-09-08T05:56:12;22.70;92.20
71672;DHT22;67659;45.554;11.812;2023-09-08T05:58:38;22.80;91.70
71672;DHT22;67659;45.554;11.812;2023-09-08T06:01:04;23.10;91.20
71672;DHT22;67659;45.554;11.812;2023-09-08T06:03:30;23.30;91.00
71672;DHT22;67659;45.554;11.812;2023-09-08T06:05:56;23.50;91.90
71672;DHT22;67659;45.554;11.812;2023-09-08T06:08:22;23.70;89.60
71672;DHT22;67659;45.554;11.812;2023-09-08T06:10:48;24.00;90.60
71672;DHT22;67659;45.554;11.812;2023-09-08T06:13:14;24.10;89.80
71672;DHT22;67659;45.554;11.812;2023-09-08T06:15:40;24.20;89.30
71672;DHT22;67659;45.554;11.812;2023-09-08T06:18:06;24.40;90.90
71672;DHT22;67659;45.554;11.812;2023-09-08T06:20:32;24.50;89.90
71672;DHT22;67659;45.554;11.812;2023-09-08T06:22:58;24.60;89.20
71672;DHT22;67659;45.554;11.812;2023-09-08T06:25:24;24.90;89.30
71672;DHT22;67659;45.554;11.812;2023-09-08T06:27:50;24.90;88.30
71672;DHT22;67659;45.554;11.812;2023-09-08T06:30:16;25.10;89.10
71672;DHT22;67659;45.554;11.812;2023-09-08T06:32:43;25.30;88.90
71672;DHT22;67659;45.554;11.812;2023-09-08T06:35:11;25.40;90.10
71672;DHT22;67659;45.554;11.812;2023-09-08T06:37:38;25.60;88.20
71672;DHT22;67659;45.554;11.812;2023-09-08T06:40:05;25.90;87.30
71672;DHT22;67659;45.554;11.812;2023-09-08T06:42:31;26.10;88.80
71672;DHT22;67659;45.554;11.812;2023-09-08T06:44:58;26.20;87.10
71672;DHT22;67659;45.554;11.812;2023-09-08T06:47:25;26.30;87.60
71672;DHT22;67659;45.554;11.812;2023-09-08T06:49:50;26.50;84.00
71672;DHT22;67659;45.554;11.812;2023-09-08T06:52:17;26.70;84.60
71672;DHT22;67659;45.554;11.812;2023-09-08T06:54:43;26.90;85.80
71672;DHT22;67659;45.554;11.812;2023-09-08T06:57:12;27.00;82.70
71672;DHT22;67659;45.554;11.812;2023-09-08T06:59:38;27.10;83.40
71672;DHT22;67659;45.554;11.812;2023-09-08T07:02:04;27.20;83.50
71672;DHT22;67659;45.554;11.812;2023-09-08T07:04:30;27.40;84.50
71672;DHT22;67659;45.554;11.812;2023-09-08T07:06:57;27.60;84.40
71672;DHT22;67659;45.554;11.812;2023-09-08T07:09:23;27.90;83.90
71672;DHT22;67659;45.554;11.812;2023-09-08T07:11:49;27.90;83.90
71672;DHT22;67659;45.554;11.812;2023-09-08T07:14:14;28.20;83.70
71672;DHT22;67659;45.554;11.812;2023-09-08T07:16:40;28.30;82.40
71672;DHT22;67659;45.554;11.812;2023-09-08T07:19:06;28.50;82.00
71672;DHT22;67659;45.554;11.812;2023-09-08T07:21:32;28.70;83.10
71672;DHT22;67659;45.554;11.812;2023-09-08T07:23:58;28.90;82.20
71672;DHT22;67659;45.554;11.812;2023-09-08T07:26:24;29.10;81.90
71672;DHT22;67659;45.554;11.812;2023-09-08T07:28:50;29.20;82.00
71672;DHT22;67659;45.554;11.812;2023-09-08T07:31:16;29.30;82.30
71672;DHT22;67659;45.554;11.812;2023-09-08T07:33:41;29.50;81.80
71672;DHT22;67659;45.554;11.812;2023-09-08T07:36:08;29.50;81.80
71672;DHT22;67659;45.554;11.812;2023-09-08T07:38:35;29.60;82.20
71672;DHT22;67659;45.554;11.812;2023-09-08T07:41:02;29.60;81.60
71672;DHT22;67659;45.554;11.812;2023-09-08T07:43:28;29.90;82.10
71672;DHT22;67659;45.554;11.812;2023-09-08T07:45:54;30.10;81.70
71672;DHT22;67659;45.554;11.812;2023-09-08T07:48:20;30.20;81.20
71672;DHT22;67659;45.554;11.812;2023-09-08T07:50:46;30.50;81.50
71672;DHT22;67659;45.554;11.812;2023-09-08T07:53:12;30.70;80.60
71672;DHT22;67659;45.554;11.812;2023-09-08T07:55:38;30.70;80.70
71672;DHT22;67659;45.554;11.812;2023-09-08T07:58:04;30.80;80.80
71672;DHT22;67659;45.554;11.812;2023-09-08T08:00:30;31.00;79.40
71672;DHT22;67659;45.554;11.812;2023-09-08T08:02:57;31.20;77.90
71672;DHT22;67659;45.554;11.812;2023-09-08T08:05:25;31.30;76.10
71672;DHT22;67659;45.554;11.812;2023-09-08T08:07:51;31.30;77.40
71672;DHT22;67659;45.554;11.812;2023-09-08T08:10:17;31.30;76.70
71672;DHT22;67659;45.554;11.812;2023-09-08T08:12:44;31.20;75.60
71672;DHT22;67659;45.554;11.812;2023-09-08T08:15:10;31.20;75.70
71672;DHT22;67659;45.554;11.812;2023-09-08T08:17:37;31.50;75.00
71672;DHT22;67659;45.554;11.812;2023-09-08T08:20:04;31.50;74.50
71672;DHT22;67659;45.554;11.812;2023-09-08T08:22:38;31.60;74.40
71672;DHT22;67659;45.554;11.812;2023-09-08T08:25:05;31.80;73.00
71672;DHT22;67659;45.554;11.812;2023-09-08T08:27:31;32.00;70.10
71672;DHT22;67659;45.554;11.812;2023-09-08T08:30:00;31.90;69.50
71672;DHT22;67659;45.554;11.812;2023-09-08T08:32:29;32.10;69.80
71672;DHT22;67659;45.554;11.812;2023-09-08T08:34:55;32.20;66.40
71672;DHT22;67659;45.554;11.812;2023-09-08T08:37:22;32.00;64.30
71672;DHT22;67659;45.554;11.812;2023-09-08T08:39:48;31.60;66.90
71672;DHT22;67659;45.554;11.812;2023-09-08T08:42:14;31.80;66.10
71672;DHT22;67659;45.554;11.812;2023-09-08T08:44:41;31.80;68.30
71672;DHT22;67659;45.554;11.812;2023-09-08T08:47:08;31.70;65.50
71672;DHT22;67659;45.554;11.812;2023-09-08T08:49:36;31.90;63.20
71672;DHT22;67659;45.554;11.812;2023-09-08T08:52:06;32.30;63.30
71672;DHT22;67659;45.554;11.812;2023-09-08T08:54:38;32.10;61.30
71672;DHT22;67659;45.554;11.812;2023-09-08T08:57:04;32.20;63.40
71672;DHT22;67659;45.554;11.812;2023-09-08T08:59:31;32.60;61.30
71672;DHT22;67659;45.554;11.812;2023-09-08T09:04:25;32.70;62.80
71672;DHT22;67659;45.554;11.812;2023-09-08T09:06:53;33.00;63.00
71672;DHT22;67659;45.554;11.812;2023-09-08T09:09:20;33.00;60.10
71672;DHT22;67659;45.554;11.812;2023-09-08T09:11:46;33.10;61.40
71672;DHT22;67659;45.554;11.812;2023-09-08T09:14:12;33.40;59.80
71672;DHT22;67659;45.554;11.812;2023-09-08T09:16:43;33.50;59.60
71672;DHT22;67659;45.554;11.812;2023-09-08T09:19:18;33.70;58.00
71672;DHT22;67659;45.554;11.812;2023-09-08T09:21:51;33.60;58.80
71672;DHT22;67659;45.554;11.812;2023-09-08T09:24:31;33.80;60.70
71672;DHT22;67659;45.554;11.812;2023-09-08T09:27:00;34.10;58.60
71672;DHT22;67659;45.554;11.812;2023-09-08T09:29:27;33.90;59.40
71672;DHT22;67659;45.554;11.812;2023-09-08T09:34:28;33.70;58.50
71672;DHT22;67659;45.554;11.812;2023-09-08T09:36:56;33.70;57.40
71672;DHT22;67659;45.554;11.812;2023-09-08T09:39:23;33.20;57.20
71672;DHT22;67659;45.554;11.812;2023-09-08T09:41:54;33.00;54.50
71672;DHT22;67659;45.554;11.812;2023-09-08T09:44:21;32.60;56.80
71672;DHT22;67659;45.554;11.812;2023-09-08T09:46:48;33.30;59.80
71672;DHT22;67659;45.554;11.812;2023-09-08T09:49:15;33.60;57.00
71672;DHT22;67659;45.554;11.812;2023-09-08T09:51:46;33.40;57.00
71672;DHT22;67659;45.554;11.812;2023-09-08T09:54:14;33.70;58.10
71672;DHT22;67659;45.554;11.812;2023-09-08T09:56:40;34.00;57.80
71672;DHT22;67659;45.554;11.812;2023-09-08T09:59:11;34.40;58.90
71672;DHT22;67659;45.554;11.812;2023-09-08T10:01:39;34.50;56.20
71672;DHT22;67659;45.554;11.812;2023-09-08T10:04:06;33.50;55.10
71672;DHT22;67659;45.554;11.812;2023-09-08T10:06:34;33.10;54.90
71672;DHT22;67659;45.554;11.812;2023-09-08T10:09:01;33.00;56.80
71672;DHT22;67659;45.554;11.812;2023-09-08T10:11:34;33.00;54.30
71672;DHT22;67659;45.554;11.812;2023-09-08T10:14:00;32.90;52.70
71672;DHT22;67659;45.554;11.812;2023-09-08T10:16:28;33.20;56.00
71672;DHT22;67659;45.554;11.812;2023-09-08T10:18:58;33.60;55.80
71672;DHT22;67659;45.554;11.812;2023-09-08T10:21:26;34.00;54.20
71672;DHT22;67659;45.554;11.812;2023-09-08T10:24:01;34.40;54.00
71672;DHT22;67659;45.554;11.812;2023-09-08T10:26:32;34.80;52.10
71672;DHT22;67659;45.554;11.812;2023-09-08T10:29:00;35.10;51.20
71672;DHT22;67659;45.554;11.812;2023-09-08T10:31:27;35.00;51.90
71672;DHT22;67659;45.554;11.812;2023-09-08T10:33:56;35.10;51.10
71672;DHT22;67659;45.554;11.812;2023-09-08T10:36:24;35.10;51.60
71672;DHT22;67659;45.554;11.812;2023-09-08T10:38:50;35.10;50.20
71672;DHT22;67659;45.554;11.812;2023-09-08T10:43:44;35.40;49.80
71672;DHT22;67659;45.554;11.812;2023-09-08T10:46:20;34.70;48.90
71672;DHT22;67659;45.554;11.812;2023-09-08T10:48:46;35.20;50.70
71672;DHT22;67659;45.554;11.812;2023-09-08T10:51:13;35.40;49.20
71672;DHT22;67659;45.554;11.812;2023-09-08T10:53:40;35.30;49.10
71672;DHT22;67659;45.554;11.812;2023-09-08T10:56:06;35.10;49.70
71672;DHT22;67659;45.554;11.812;2023-09-08T10:58:34;35.00;49.50
71672;DHT22;67659;45.554;11.812;2023-09-08T11:01:05;35.60;49.60
71672;DHT22;67659;45.554;11.812;2023-09-08T11:06:03;35.50;47.80
71672;DHT22;67659;45.554;11.812;2023-09-08T11:08:30;35.50;49.50
71672;DHT22;67659;45.554;11.812;2023-09-08T11:10:56;35.90;48.90
71672;DHT22;67659;45.554;11.812;2023-09-08T11:13:22;35.70;47.50
71672;DHT22;67659;45.554;11.812;2023-09-08T11:15:52;35.60;48.20
71672;DHT22;67659;45.554;11.812;2023-09-08T11:18:17;35.50;47.80
71672;DHT22;67659;45.554;11.812;2023-09-08T11:20:54;35.40;46.90
71672;DHT22;67659;45.554;11.812;2023-09-08T11:23:21;35.70;49.10
71672;DHT22;67659;45.554;11.812;2023-09-08T11:25:49;35.50;46.00
71672;DHT22;67659;45.554;11.812;2023-09-08T11:28:16;35.20;48.30
71672;DHT22;67659;45.554;11.812;2023-09-08T11:30:42;35.50;47.80
71672;DHT22;67659;45.554;11.812;2023-09-08T11:33:17;34.70;47.70
71672;DHT22;67659;45.554;11.812;2023-09-08T11:35:45;34.40;51.00
71672;DHT22;67659;45.554;11.812;2023-09-08T11:38:12;34.90;49.80
71672;DHT22;67659;45.554;11.812;2023-09-08T11:40:38;35.30;49.40
71672;DHT22;67659;45.554;11.812;2023-09-08T11:43:07;35.20;48.90
71672;DHT22;67659;45.554;11.812;2023-09-08T11:45:35;35.10;47.40
71672;DHT22;67659;45.554;11.812;2023-09-08T11:48:01;34.90;49.70
71672;DHT22;67659;45.554;11.812;2023-09-08T11:50:27;35.10;48.50
71672;DHT22;67659;45.554;11.812;2023-09-08T11:52:54;34.70;47.30
71672;DHT22;67659;45.554;11.812;2023-09-08T11:55:21;34.50;48.60
71672;DHT22;67659;45.554;11.812;2023-09-08T11:57:50;34.50;48.70
71672;DHT22;67659;45.554;11.812;2023-09-08T12:00:20;34.90;48.30
71672;DHT22;67659;45.554;11.812;2023-09-08T12:02:49;35.40;49.20
71672;DHT22;67659;45.554;11.812;2023-09-08T12:05:28;35.10;49.40
71672;DHT22;67659;45.554;11.812;2023-09-08T12:07:55;35.70;47.80
71672;DHT22;67659;45.554;11.812;2023-09-08T12:10:23;35.60;48.90
71672;DHT22;67659;45.554;11.812;2023-09-08T12:12:53;35.60;47.20
71672;DHT22;67659;45.554;11.812;2023-09-08T12:15:40;36.00;47.30
71672;DHT22;67659;45.554;11.812;2023-09-08T12:18:13;35.50;47.60
71672;DHT22;67659;45.554;11.812;2023-09-08T12:20:43;35.50;49.30
71672;DHT22;67659;45.554;11.812;2023-09-08T12:23:20;35.40;47.80
71672;DHT22;67659;45.554;11.812;2023-09-08T12:25:47;35.50;47.60
71672;DHT22;67659;45.554;11.812;2023-09-08T12:28:13;34.80;47.50
71672;DHT22;67659;45.554;11.812;2023-09-08T12:30:39;34.70;47.90
71672;DHT22;67659;45.554;11.812;2023-09-08T12:33:05;34.80;46.40
71672;DHT22;67659;45.554;11.812;2023-09-08T12:35:34;35.10;45.90
71672;DHT22;67659;45.554;11.812;2023-09-08T12:38:03;35.20;47.90
71672;DHT22;67659;45.554;11.812;2023-09-08T12:40:30;35.20;47.60
71672;DHT22;67659;45.554;11.812;2023-09-08T12:42:56;35.00;47.40
71672;DHT22;67659;45.554;11.812;2023-09-08T12:45:26;35.00;48.30
71672;DHT22;67659;45.554;11.812;2023-09-08T12:47:52;34.50;48.60
71672;DHT22;67659;45.554;11.812;2023-09-08T12:50:20;34.40;49.40
71672;DHT22;67659;45.554;11.812;2023-09-08T12:52:46;34.70;48.40
71672;DHT22;67659;45.554;11.812;2023-09-08T12:55:12;34.80;48.20
71672;DHT22;67659;45.554;11.812;2023-09-08T12:57:38;34.90;47.20
71672;DHT22;67659;45.554;11.812;2023-09-08T13:00:04;35.20;48.20
71672;DHT22;67659;45.554;11.812;2023-09-08T13:02:30;35.40;47.90
71672;DHT22;67659;45.554;11.812;2023-09-08T13:04:56;35.60;47.00
71672;DHT22;67659;45.554;11.812;2023-09-08T13:07:24;35.70;48.00
71672;DHT22;67659;45.554;11.812;2023-09-08T13:09:50;35.30;46.50
71672;DHT22;67659;45.554;11.812;2023-09-08T13:12:19;35.00;47.80
71672;DHT22;67659;45.554;11.812;2023-09-08T13:14:44;34.90;47.70
71672;DHT22;67659;45.554;11.812;2023-09-08T13:17:11;34.70;47.20
71672;DHT22;67659;45.554;11.812;2023-09-08T13:19:37;34.70;47.00
71672;DHT22;67659;45.554;11.812;2023-09-08T13:22:05;34.90;47.70
71672;DHT22;67659;45.554;11.812;2023-09-08T13:24:31;34.90;49.60
71672;DHT22;67659;45.554;11.812;2023-09-08T13:26:58;35.00;48.70
71672;DHT22;67659;45.554;11.812;2023-09-08T13:29:24;34.90;48.90
71672;DHT22;67659;45.554;11.812;2023-09-08T13:31:50;34.90;46.20
71672;DHT22;67659;45.554;11.812;2023-09-08T13:34:15;35.10;46.70
71672;DHT22;67659;45.554;11.812;2023-09-08T13:36:41;35.00;46.20
71672;DHT22;67659;45.554;11.812;2023-09-08T13:39:07;34.80;47.40
71672;DHT22;67659;45.554;11.812;2023-09-08T13:41:51;34.90;46.70
71672;DHT22;67659;45.554;11.812;2023-09-08T13:44:18;34.60;47.50
71672;DHT22;67659;45.554;11.812;2023-09-08T13:46:47;34.70;48.60
71672;DHT22;67659;45.554;11.812;2023-09-08T13:49:14;34.70;48.00
71672;DHT22;67659;45.554;11.812;2023-09-08T13:51:40;34.90;48.60
71672;DHT22;67659;45.554;11.812;2023-09-08T13:54:06;35.00;48.00
71672;DHT22;67659;45.554;11.812;2023-09-08T13:56:33;35.00;46.30
71672;DHT22;67659;45.554;11.812;2023-09-08T13:59:00;34.80;45.50
71672;DHT22;67659;45.554;11.812;2023-09-08T14:01:25;34.70;46.90
71672;DHT22;67659;45.554;11.812;2023-09-08T14:03:53;34.50;47.60
71672;DHT22;67659;45.554;11.812;2023-09-08T14:06:19;34.50;48.50
71672;DHT22;67659;45.554;11.812;2023-09-08T14:08:45;34.60;47.60
71672;DHT22;67659;45.554;11.812;2023-09-08T14:11:11;34.30;49.50
71672;DHT22;67659;45.554;11.812;2023-09-08T14:13:38;34.10;49.50
71672;DHT22;67659;45.554;11.812;2023-09-08T14:16:04;33.90;46.60
71672;DHT22;67659;45.554;11.812;2023-09-08T14:18:30;33.80;48.50
71672;DHT22;67659;45.554;11.812;2023-09-08T14:20:56;34.00;49.30
71672;DHT22;67659;45.554;11.812;2023-09-08T14:23:22;33.90;49.10
71672;DHT22;67659;45.554;11.812;2023-09-08T14:25:48;33.80;49.00
71672;DHT22;67659;45.554;11.812;2023-09-08T14:28:13;33.70;49.70
71672;DHT22;67659;45.554;11.812;2023-09-08T14:30:39;33.80;48.70
71672;DHT22;67659;45.554;11.812;2023-09-08T14:33:06;33.60;49.10
71672;DHT22;67659;45.554;11.812;2023-09-08T14:35:33;33.70;47.70
71672;DHT22;67659;45.554;11.812;2023-09-08T14:37:59;33.30;47.60
71672;DHT22;67659;45.554;11.812;2023-09-08T14:40:25;33.40;49.30
71672;DHT22;67659;45.554;11.812;2023-09-08T14:42:50;33.30;48.80
71672;DHT22;67659;45.554;11.812;2023-09-08T14:45:16;33.00;49.60
71672;DHT22;67659;45.554;11.812;2023-09-08T14:47:42;33.20;48.40
71672;DHT22;67659;45.554;11.812;2023-09-08T14:50:08;32.90;50.00
71672;DHT22;67659;45.554;11.812;2023-09-08T14:52:35;33.00;49.60
71672;DHT22;67659;45.554;11.812;2023-09-08T14:55:00;33.20;49.50
71672;DHT22;67659;45.554;11.812;2023-09-08T14:57:26;33.20;51.10
71672;DHT22;67659;45.554;11.812;2023-09-08T14:59:52;33.20;50.40
71672;DHT22;67659;45.554;11.812;2023-09-08T15:02:21;33.10;50.30
71672;DHT22;67659;45.554;11.812;2023-09-08T15:04:48;33.20;49.90
71672;DHT22;67659;45.554;11.812;2023-09-08T15:07:14;33.10;49.10
71672;DHT22;67659;45.554;11.812;2023-09-08T15:09:40;33.00;50.70
71672;DHT22;67659;45.554;11.812;2023-09-08T15:12:06;33.10;49.20
71672;DHT22;67659;45.554;11.812;2023-09-08T15:14:32;33.00;51.10
71672;DHT22;67659;45.554;11.812;2023-09-08T15:16:58;32.90;51.50
71672;DHT22;67659;45.554;11.812;2023-09-08T15:19:23;32.70;49.90
71672;DHT22;67659;45.554;11.812;2023-09-08T15:21:49;32.30;49.00
71672;DHT22;67659;45.554;11.812;2023-09-08T15:24:15;32.40;50.80
71672;DHT22;67659;45.554;11.812;2023-09-08T15:26:41;32.50;51.00
71672;DHT22;67659;45.554;11.812;2023-09-08T15:29:07;32.30;50.50